Time;durP1;ratioP1;P1;durP2;ratioP2;P2;SDS_P1;SDS_P2;PMS_P1;PMS_P2;Temp;Humidity;BMP_temperature;BMP_pressure;BME280_temperature;BME280_humidity;BME280_pressure;Samples;Min_cycle;Max_cycle;Signal;HPM_P1;HPM_P2
2022/10/23 00:01:21;;;;;;;11.80;5.72;;;;;;;6.49;66.54;100071.56;6123222;23;20025;-78
2022/10/23 00:03:51;;;;;;;9.40;4.93;;;;;;;6.82;66.52;100126.25;6125217;23;20006;-81
2022/10/23 00:06:18;;;;;;;11.07;5.38;;;;;;;6.56;66.91;100083.69;6133069;23;20017;-78
2022/10/23 00:08:46;;;;;;;10.40;5.53;;;;;;;6.74;66.71;100105.44;6106395;23;20025;-79
2022/10/23 00:11:15;;;;;;;8.50;5.30;;;;;;;6.81;66.80;100121.91;6103504;23;20021;-80
2022/10/23 00:13:41;;;;;;;9.55;5.50;;;;;;;6.79;67.02;100121.88;6101705;23;20033;-80
2022/10/23 00:16:08;;;;;;;10.00;5.28;;;;;;;6.66;66.67;100096.75;6078379;23;20021;-78
2022/10/23 00:18:34;;;;;;;8.32;5.10;;;;;;;6.73;66.65;100103.72;6078453;23;20022;-80
2022/10/23 00:21:01;;;;;;;7.22;5.10;;;;;;;6.75;66.97;100107.16;6078866;23;20024;-81
2022/10/23 00:23:27;;;;;;;9.85;4.93;;;;;;;6.73;66.73;100106.31;6133206;23;20018;-80
2022/10/23 00:25:53;;;;;;;9.70;5.57;;;;;;;6.70;66.88;100095.94;6081946;23;20146;-79
2022/10/23 00:28:20;;;;;;;8.90;5.45;;;;;;;6.51;66.55;100075.00;6104102;23;20022;-82
2022/10/23 00:30:46;;;;;;;8.98;5.00;;;;;;;6.54;66.81;100077.63;6078047;23;20100;-77
2022/10/23 00:33:14;;;;;;;9.90;5.35;;;;;;;6.41;66.70;100063.69;6100735;23;20480;-79
2022/10/23 00:35:41;;;;;;;13.10;5.82;;;;;;;6.59;66.67;100088.03;6127098;23;20018;-82
2022/10/23 00:38:08;;;;;;;9.75;5.38;;;;;;;6.54;66.48;100080.22;6102246;23;20017;-80
2022/10/23 00:40:34;;;;;;;8.57;5.50;;;;;;;6.38;66.86;100055.91;6078577;23;20017;-81
2022/10/23 00:43:01;;;;;;;10.68;6.25;;;;;;;6.53;66.87;100078.47;6078272;23;20052;-80
2022/10/23 00:45:32;;;;;;;9.18;5.55;;;;;;;6.36;66.90;100054.13;6084310;23;20025;-79
2022/10/23 00:48:02;;;;;;;7.93;4.87;;;;;;;6.49;66.59;100068.97;6104872;23;20017;-77
2022/10/23 00:50:31;;;;;;;8.77;5.57;;;;;;;6.40;66.62;100074.00;6076873;23;20100;-81
2022/10/23 00:53:01;;;;;;;7.97;5.43;;;;;;;6.35;66.95;100061.03;6053105;23;20471;-77
2022/10/23 00:55:28;;;;;;;9.18;5.50;;;;;;;6.39;67.21;100064.50;6077770;23;20496;-78
2022/10/23 00:57:54;;;;;;;10.35;5.28;;;;;;;6.00;66.69;100012.34;6128402;23;20109;-79
2022/10/23 01:00:24;;;;;;;12.13;5.97;;;;;;;6.24;67.20;100053.16;6079403;23;20030;-79
2022/10/23 01:02:53;;;;;;;10.32;5.57;;;;;;;6.25;67.24;100057.47;6105250;23;20341;-80
2022/10/23 01:05:26;;;;;;;14.82;5.82;;;;;;;6.15;66.92;100050.44;6054504;23;20060;-80
2022/10/23 01:07:58;;;;;;;10.02;5.80;;;;;;;6.20;67.10;100053.94;6077925;23;20017;-80
2022/10/23 01:10:28;;;;;;;9.73;5.88;;;;;;;6.18;67.31;100055.66;6101302;23;20049;-79
2022/10/23 01:12:57;;;;;;;9.73;5.88;;;;;;;6.16;66.69;100053.06;6076737;23;20101;-80
2022/10/23 01:15:44;;;;;;;11.52;6.20;;;;;;;6.12;67.40;100047.81;6076672;23;20487;-78
2022/10/23 01:18:15;;;;;;;10.35;6.22;;;;;;;5.99;67.81;100018.31;6076638;23;20021;-78
2022/10/23 01:21:04;;;;;;;10.30;6.20;;;;;;;5.96;66.72;100036.38;6076317;23;20025;-80
2022/10/23 01:24:00;;;;;;;10.52;6.03;;;;;;;5.86;67.65;100032.78;6125502;23;20537;-78
2022/10/23 01:26:34;;;;;;;12.00;6.75;;;;;;;5.68;67.36;100023.06;6099563;23;20022;-79
2022/10/23 01:29:18;;;;;;;10.00;5.97;;;;;;;5.56;67.72;100032.34;6126174;23;20021;-80
2022/10/23 01:31:54;;;;;;;12.18;6.53;;;;;;;5.39;68.06;100010.59;6075588;23;20024;-77
2022/10/23 01:34:28;;;;;;;10.50;5.90;;;;;;;5.42;67.67;100024.38;6076489;23;20467;-78
2022/10/23 01:36:56;;;;;;;11.63;7.00;;;;;;;5.17;67.71;100002.50;6076097;23;20021;-78
2022/10/23 01:39:37;;;;;;;16.30;7.32;;;;;;;5.09;68.11;100009.22;6102357;23;20032;-80
2022/10/23 01:42:27;;;;;;;11.55;6.32;;;;;;;5.01;68.25;100011.69;6077862;23;20092;-78
2022/10/23 01:45:03;;;;;;;12.45;7.18;;;;;;;4.97;68.40;100015.03;6076049;23;20013;-81
2022/10/23 01:47:38;;;;;;;13.60;7.38;;;;;;;4.94;68.77;100015.03;6099920;23;20024;-77
2022/10/23 01:50:09;;;;;;;17.30;8.45;;;;;;;4.89;68.99;100014.06;6077344;23;20061;-82
2022/10/23 01:52:37;;;;;;;15.65;7.63;;;;;;;4.78;68.56;99999.25;6075884;23;20021;-80
2022/10/23 01:55:06;;;;;;;13.60;7.68;;;;;;;4.88;69.22;100020.91;6075317;23;20022;-79
2022/10/23 01:57:36;;;;;;;14.38;7.55;;;;;;;4.65;69.13;99997.31;6052743;23;20441;-80
2022/10/23 02:00:12;;;;;;;15.40;7.47;;;;;;;4.69;69.34;100009.41;6053109;23;20328;-78
2022/10/23 02:02:51;;;;;;;15.30;7.40;;;;;;;4.48;69.05;99972.09;6104761;23;20029;-79
2022/10/23 02:05:28;;;;;;;13.93;7.28;;;;;;;4.68;69.28;100015.41;6101255;23;20021;-79
2022/10/23 02:07:56;;;;;;;16.30;8.05;;;;;;;4.33;69.42;99962.34;6077157;23;20024;-79
2022/10/23 02:10:50;;;;;;;15.95;8.27;;;;;;;4.57;69.43;100014.31;6052231;23;20025;-80
2022/10/23 02:13:37;;;;;;;14.90;7.78;;;;;;;4.55;69.06;100024.63;6049976;23;20037;-79
2022/10/23 02:16:24;;;;;;;15.05;8.10;;;;;;;4.50;69.52;100016.81;6077326;23;20028;-78
2022/10/23 02:19:13;;;;;;;14.38;7.60;;;;;;;4.45;70.12;100004.66;6099067;23;20022;-77
2022/10/23 02:21:57;;;;;;;16.60;8.32;;;;;;;4.37;69.94;100012.22;6075763;23;20017;-78
2022/10/23 02:24:58;;;;;;;18.73;8.57;;;;;;;4.32;69.35;100011.28;6075895;23;20124;-79
2022/10/23 02:28:00;;;;;;;13.95;7.82;;;;;;;4.27;69.57;100007.75;6077213;23;20052;-81
2022/10/23 02:30:40;;;;;;;17.63;8.48;;;;;;;4.14;69.96;99996.34;6043785;23;20055;-80
2022/10/23 02:33:12;;;;;;;16.85;8.65;;;;;;;4.22;70.80;100016.25;6126145;23;20125;-80
2022/10/23 02:35:39;;;;;;;19.27;8.45;;;;;;;4.21;70.59;99999.06;6076081;23;20076;-81
2022/10/23 02:38:36;;;;;;;17.90;8.93;;;;;;;4.15;69.97;99998.91;6099500;23;20017;-80
2022/10/23 02:41:25;;;;;;;20.60;8.70;;;;;;;4.03;70.25;99980.66;6077686;23;20048;-82
2022/10/23 02:44:09;;;;;;;17.58;8.98;;;;;;;4.02;70.78;99986.66;6079212;23;20017;-80
2022/10/23 02:46:58;;;;;;;18.30;9.93;;;;;;;3.98;70.72;99970.25;6105470;23;20024;-80
2022/10/23 02:49:55;;;;;;;21.25;10.43;;;;;;;3.92;70.36;99986.44;6105044;23;20463;-80
2022/10/23 02:53:15;;;;;;;18.75;9.43;;;;;;;4.07;70.72;99993.63;6127545;23;20025;-80
2022/10/23 02:55:51;;;;;;;21.38;9.57;;;;;;;4.04;70.79;99993.56;5981370;24;20051;-79
2022/10/23 02:58:27;;;;;;;18.83;9.15;;;;;;;3.94;70.14;99994.22;6105484;23;20022;-79
2022/10/23 03:01:01;;;;;;;19.50;9.82;;;;;;;3.95;71.20;99989.91;6104901;23;20113;-80
2022/10/23 03:03:32;;;;;;;16.90;8.48;;;;;;;3.89;70.79;99988.09;6054377;23;20045;-81
2022/10/23 03:05:59;;;;;;;17.85;9.02;;;;;;;3.72;70.59;99972.28;6053977;23;20057;-78
2022/10/23 03:08:25;;;;;;;19.15;8.65;;;;;;;3.71;70.76;99985.97;6116530;23;20165;-78
2022/10/23 03:10:51;;;;;;;18.42;8.73;;;;;;;3.66;70.90;99993.59;6078796;23;20522;-79
2022/10/23 03:13:19;;;;;;;16.67;8.82;;;;;;;3.46;71.11;99970.88;6055579;23;20396;-80
2022/10/23 03:15:45;;;;;;;16.15;8.45;;;;;;;3.50;71.16;99979.50;6101824;23;20028;-81
2022/10/23 03:18:13;;;;;;;17.83;9.00;;;;;;;3.54;71.55;99976.19;6077627;23;20068;-79
2022/10/23 03:20:44;;;;;;;18.63;8.35;;;;;;;3.43;71.31;99964.75;6054233;23;20467;-79
2022/10/23 03:23:12;;;;;;;17.77;8.70;;;;;;;3.38;71.93;99967.25;6128639;23;20464;-79
2022/10/23 03:25:38;;;;;;;18.23;8.88;;;;;;;3.40;72.17;99964.72;6079394;23;20431;-79
2022/10/23 03:28:04;;;;;;;18.50;9.00;;;;;;;3.27;71.88;99948.97;6135856;23;20341;-78
2022/10/23 03:30:34;;;;;;;22.30;9.65;;;;;;;3.35;71.99;99961.16;6106108;23;20025;-81
2022/10/23 03:33:00;;;;;;;16.23;8.73;;;;;;;3.42;72.17;99974.19;6077230;23;20068;-79
2022/10/23 03:35:26;;;;;;;19.75;9.35;;;;;;;3.08;71.95;99914.28;6078760;23;20101;-78
2022/10/23 03:37:52;;;;;;;18.80;9.05;;;;;;;3.36;71.81;99965.47;6111235;23;20532;-79
2022/10/23 03:40:18;;;;;;;20.65;9.13;;;;;;;3.40;72.23;99970.72;6059505;23;20425;-79
2022/10/23 03:42:44;;;;;;;20.50;9.55;;;;;;;3.19;72.10;99941.94;6076680;23;20053;-82
2022/10/23 03:45:13;;;;;;;18.20;9.20;;;;;;;3.35;72.25;99969.72;6100489;23;20368;-79
2022/10/23 03:47:40;;;;;;;20.90;9.10;;;;;;;3.24;72.58;99953.19;6100199;23;20095;-81
2022/10/23 03:50:07;;;;;;;20.05;9.43;;;;;;;3.17;72.37;99950.47;6100136;23;20014;-79
2022/10/23 03:52:34;;;;;;;20.65;9.27;;;;;;;3.27;72.31;99969.56;6100118;23;20519;-78
2022/10/23 03:55:01;;;;;;;20.98;10.02;;;;;;;3.14;72.22;99931.53;6075697;23;20065;-81
2022/10/23 03:57:29;;;;;;;23.15;9.52;;;;;;;3.24;73.19;99927.47;6101114;23;20025;-79
2022/10/23 03:59:55;;;;;;;20.92;9.73;;;;;;;3.40;72.36;99955.28;6100540;23;20021;-80
2022/10/23 04:02:21;;;;;;;23.15;10.57;;;;;;;3.30;72.96;99932.78;6100550;23;20456;-78
2022/10/23 04:04:47;;;;;;;20.65;9.48;;;;;;;3.42;72.84;99957.91;6101840;23;20029;-83
2022/10/23 04:07:13;;;;;;;19.80;9.57;;;;;;;3.33;72.97;99927.66;6105346;23;20029;-79
2022/10/23 04:09:39;;;;;;;19.58;9.02;;;;;;;3.46;73.00;99947.72;6123775;23;20066;-79
2022/10/23 04:12:05;;;;;;;21.20;9.85;;;;;;;3.45;72.72;99942.50;6099493;23;20018;-80
2022/10/23 04:14:31;;;;;;;18.90;9.02;;;;;;;3.00;72.99;99862.66;6144835;23;20046;-82
2022/10/23 04:16:57;;;;;;;20.45;9.90;;;;;;;3.38;73.21;99936.38;6090462;23;20045;-79
2022/10/23 04:19:59;;;;;;;20.23;9.30;;;;;;;3.13;73.35;99884.38;6062439;23;20415;-79
2022/10/23 04:22:26;;;;;;;18.33;9.35;;;;;;;2.32;72.87;99742.03;6084668;23;20017;-79
2022/10/23 04:24:55;;;;;;;20.17;9.75;;;;;;;2.29;73.20;99736.81;6081823;23;20068;-80
2022/10/23 04:27:22;;;;;;;19.08;9.30;;;;;;;3.30;72.49;99897.63;6103262;23;20096;-80
2022/10/23 04:29:48;;;;;;;21.23;9.65;;;;;;;3.47;73.48;99925.41;6055917;23;20026;-82
2022/10/23 04:32:14;;;;;;;20.88;8.88;;;;;;;3.34;72.64;99901.09;6102546;23;20018;-82
2022/10/23 04:34:43;;;;;;;18.60;9.18;;;;;;;3.63;73.56;99936.91;6101707;23;20372;-81
2022/10/23 04:37:09;;;;;;;22.52;9.50;;;;;;;3.28;72.30;99883.00;6126671;23;20148;-84
2022/10/23 04:39:38;;;;;;;21.73;9.55;;;;;;;3.60;72.78;99912.00;6076429;23;20025;-86
2022/10/23 04:42:04;;;;;;;19.30;9.13;;;;;;;3.84;73.00;99891.84;6100144;23;20010;-82
2022/10/23 04:44:39;;;;;;;18.00;9.32;;;;;;;4.35;72.75;99895.38;6100651;23;20018;-80
2022/10/23 04:47:07;;;;;;;16.35;8.98;;;;;;;4.84;72.66;99908.28;6100328;23;20052;-80
2022/10/23 04:49:39;;;;;;;17.70;9.15;;;;;;;4.73;72.04;99905.50;6054030;23;20108;-83
2022/10/23 04:52:34;;;;;;;16.13;8.57;;;;;;;4.88;72.73;99868.78;6108013;23;20022;-82
2022/10/23 04:55:29;;;;;;;17.67;8.85;;;;;;;5.53;72.59;99849.03;6114919;23;20033;-83
2022/10/23 04:58:34;;;;;;;15.25;8.35;;;;;;;6.24;72.16;99853.28;6112244;23;20018;-83
2022/10/23 05:01:01;;;;;;;15.38;7.97;;;;;;;5.72;70.69;99721.00;6102911;23;20581;-81
2022/10/23 05:03:38;;;;;;;14.98;8.18;;;;;;;6.29;71.01;99878.31;6057085;23;20152;-83
2022/10/23 05:06:04;;;;;;;15.60;8.95;;;;;;;5.92;69.66;99888.22;6080564;23;20018;-84
2022/10/23 05:08:49;;;;;;;15.43;8.77;;;;;;;4.55;70.27;99723.06;6105483;23;20095;-82
2022/10/23 05:11:15;;;;;;;18.55;9.25;;;;;;;5.49;70.17;99882.53;6130134;23;20081;-79
2022/10/23 05:13:46;;;;;;;16.10;8.75;;;;;;;5.33;70.57;99868.53;6104019;23;20032;-80
2022/10/23 05:16:27;;;;;;;18.30;9.57;;;;;;;5.28;69.74;99864.22;6102128;23;20021;-79
2022/10/23 05:18:53;;;;;;;18.60;10.15;;;;;;;5.38;69.94;99905.63;6128512;23;20074;-84
2022/10/23 05:21:27;;;;;;;19.00;10.63;;;;;;;5.15;70.03;99871.75;6104357;23;20076;-79
2022/10/23 05:23:53;;;;;;;23.35;11.63;;;;;;;5.32;70.34;99906.41;6133750;23;20024;-81
2022/10/23 05:26:21;;;;;;;22.58;11.45;;;;;;;5.27;70.76;99902.88;6106614;23;20068;-80
2022/10/23 05:28:48;;;;;;;19.77;10.02;;;;;;;5.28;70.31;99895.19;6089693;23;20018;-78
2022/10/23 05:31:23;;;;;;;21.45;10.98;;;;;;;5.24;70.25;99888.22;6088727;23;20022;-79
2022/10/23 05:33:53;;;;;;;19.77;10.13;;;;;;;4.93;70.38;99832.75;6114962;23;20013;-81
2022/10/23 05:36:22;;;;;;;16.63;9.73;;;;;;;5.29;70.37;99888.28;6096173;23;20012;-80
2022/10/23 05:38:54;;;;;;;21.20;10.35;;;;;;;5.22;71.00;99865.81;6121745;23;20021;-82
2022/10/23 05:41:22;;;;;;;18.63;9.40;;;;;;;5.40;71.02;99891.03;6123470;23;19994;-81
2022/10/23 05:43:47;;;;;;;16.52;9.40;;;;;;;5.34;69.84;99870.28;6084522;23;20021;-82
2022/10/23 05:46:42;;;;;;;18.67;9.15;;;;;;;5.22;69.76;99851.22;6126808;23;20028;-85
2022/10/23 05:49:41;;;;;;;15.73;9.07;;;;;;;5.35;70.21;99859.13;6004496;23;20018;-82
2022/10/23 05:52:26;;;;;;;17.55;9.70;;;;;;;5.49;69.98;99859.28;6098382;23;20018;-79
2022/10/23 05:55:11;;;;;;;21.20;10.23;;;;;;;5.71;69.73;99896.59;6132629;23;20022;-79
2022/10/23 05:58:04;;;;;;;20.63;9.40;;;;;;;5.60;70.07;99862.91;6114430;23;20052;-85
2022/10/23 06:01:06;;;;;;;17.23;9.55;;;;;;;5.72;69.89;99872.50;6077367;23;20021;-79
2022/10/23 06:04:20;;;;;;;17.52;9.50;;;;;;;5.95;69.46;99888.25;6077569;23;20104;-82
2022/10/23 06:11:50;;;;;;;18.10;8.88;;;;;;;5.18;69.38;99730.75;6001019;23;20031;-82
2022/10/23 06:14:50;;;;;;;13.93;8.35;;;;;;;4.94;69.59;99677.19;5996849;23;20038;-78
2022/10/23 06:17:52;;;;;;;20.08;9.90;;;;;;;5.44;69.19;99750.84;6074180;23;20448;-84
2022/10/23 06:20:45;;;;;;;18.00;8.77;;;;;;;5.52;68.89;99744.03;6078387;23;20021;-82
2022/10/23 06:23:33;;;;;;;19.02;9.52;;;;;;;6.44;69.47;99882.75;6074787;23;20041;-80
2022/10/23 06:30:24;;;;;;;17.65;9.13;;;;;;;5.47;68.63;99639.91;6041697;23;20564;-79
2022/10/23 06:33:08;;;;;;;16.13;8.93;;;;;;;6.52;68.66;99771.66;6047342;23;20023;-83
2022/10/23 06:35:37;;;;;;;16.90;8.98;;;;;;;6.33;68.59;99726.72;6045086;23;20029;-85
2022/10/23 06:38:17;;;;;;;16.00;8.88;;;;;;;5.69;68.02;99635.78;6047818;23;20055;-85
2022/10/23 06:41:20;;;;;;;15.70;9.07;;;;;;;6.19;68.04;99726.63;6011114;23;20025;-85
2022/10/23 06:44:53;;;;;;;17.17;9.10;;;;;;;6.01;67.84;99704.97;6046034;23;20019;-86
2022/10/23 06:47:53;;;;;;;17.98;9.65;;;;;;;6.87;67.97;99850.34;5948018;24;20043;-83
2022/10/23 06:50:34;;;;;;;21.48;9.23;;;;;;;6.58;67.20;99801.88;5930291;24;20028;-85
2022/10/23 06:53:29;;;;;;;17.58;9.27;;;;;;;6.76;67.39;99837.34;5949412;24;20108;-81
2022/10/23 06:59:42;;;;;;;17.27;9.27;;;;;;;5.62;67.54;99625.41;5908771;23;20021;-81
2022/10/23 07:02:37;;;;;;;18.45;9.02;;;;;;;5.65;66.98;99634.03;6008290;23;20015;-80
2022/10/23 07:05:13;;;;;;;18.45;9.00;;;;;;;6.22;68.01;99687.88;6064008;23;20014;-84
2022/10/23 07:07:43;;;;;;;19.65;9.02;;;;;;;7.10;67.04;99819.47;6054383;23;20022;-82
2022/10/23 07:10:11;;;;;;;15.80;8.50;;;;;;;6.03;67.01;99591.28;6058616;23;20105;-81
2022/10/23 07:12:44;;;;;;;16.10;9.25;;;;;;;6.61;67.45;99673.47;6048066;23;20342;-81
2022/10/23 07:15:48;;;;;;;;;;;;;;;7.18;66.82;99794.47;5931427;24;20115;-80
2022/10/23 07:18:21;;;;;;;22.20;9.18;;;;;;;7.14;66.59;99797.91;6013416;23;20279;-78
2022/10/23 07:21:09;;;;;;;17.33;9.52;;;;;;;7.19;66.92;99793.59;6024974;23;20037;-81
2022/10/23 07:23:37;;;;;;;17.20;9.43;;;;;;;7.34;67.02;99790.22;6042485;23;20023;-79
2022/10/23 07:26:13;;;;;;;18.77;9.20;;;;;;;7.21;66.93;99729.78;6042394;23;20610;-81
2022/10/23 07:28:54;;;;;;;21.17;9.10;;;;;;;6.45;66.34;99587.22;6042452;23;20023;-81
2022/10/23 07:31:59;;;;;;;15.57;9.30;;;;;;;6.35;65.84;99600.09;6046125;23;20106;-84
2022/10/23 07:36:02;;;;;;;18.45;9.50;;;;;;;7.66;66.07;99779.13;6053861;23;20483;-84
2022/10/23 07:42:25;;;;;;;13.95;8.75;;;;;;;7.21;65.82;99666.81;5925537;24;20266;-83
2022/10/23 07:45:41;;;;;;;17.25;9.73;;;;;;;6.63;65.63;99558.00;5933773;24;20024;-84
2022/10/23 07:51:38;;;;;;;17.90;9.73;;;;;;;6.52;65.05;99588.09;5934419;23;20100;-83
2022/10/23 07:54:09;;;;;;;22.20;8.85;;;;;;;7.03;64.68;99680.53;5994604;23;20090;-80
2022/10/23 07:58:24;;;;;;;18.02;9.32;;;;;;;6.75;64.78;99665.78;6070620;23;20022;-81
2022/10/23 08:01:36;;;;;;;17.35;9.50;;;;;;;6.92;65.22;99689.16;5980429;24;20020;-81
2022/10/23 08:04:05;;;;;;;18.10;9.32;;;;;;;7.03;64.88;99707.31;5963923;24;20035;-81
2022/10/23 08:06:41;;;;;;;20.00;9.70;;;;;;;7.39;65.34;99772.16;5993923;24;20028;-82
2022/10/23 08:09:11;;;;;;;18.35;9.80;;;;;;;7.21;65.59;99729.78;5977152;23;20024;-83
2022/10/23 08:11:39;;;;;;;20.08;9.77;;;;;;;7.21;64.83;99737.53;5987191;23;20012;-82
2022/10/23 08:14:19;;;;;;;18.38;9.77;;;;;;;7.32;65.46;99750.53;5982366;23;20019;-86
2022/10/23 08:17:12;;;;;;;;;;;;;;;;;;;;;
2022/10/23 08:20:22;;;;;;;20.13;10.15;;;;;;;6.84;65.48;99669.28;6021409;23;20034;-81
2022/10/23 08:22:53;;;;;;;19.70;10.20;;;;;;;6.49;65.63;99588.09;6044287;23;20015;-81
2022/10/23 08:25:26;;;;;;;19.77;11.15;;;;;;;7.71;65.58;99779.13;6027599;23;20023;-82
2022/10/23 08:28:01;;;;;;;23.50;10.30;;;;;;;8.04;66.21;99768.81;6046128;23;20086;-80
2022/10/23 08:35:27;;;;;;;20.73;9.68;;;;;;;7.12;64.73;99596.91;5950162;24;20047;-79
2022/10/23 08:43:17;;;;;;;22.88;10.70;;;;;;;7.59;64.67;99737.69;5895577;24;20025;-80
2022/10/23 08:46:36;;;;;;;33.35;12.63;;;;;;;6.29;65.14;99552.66;5917797;24;20024;-79
2022/10/23 08:49:52;;;;;;;20.35;10.77;;;;;;;7.57;65.44;99755.78;5931791;24;20467;-80
2022/10/23 08:53:18;;;;;;;19.58;10.02;;;;;;;7.63;65.19;99747.16;5909335;24;20113;-81
2022/10/23 08:56:43;;;;;;;24.23;10.75;;;;;;;7.83;65.70;99737.69;5930946;24;20025;-83
2022/10/23 08:59:45;;;;;;;;;;;;;;;7.95;65.44;99733.41;6006154;23;20093;-85
2022/10/23 09:02:26;;;;;;;;;;;;;;;7.94;64.91;99734.25;6040788;23;19945;-81
2022/10/23 09:04:59;;;;;;;24.27;11.30;;;;;;;7.36;65.08;99660.81;6048794;23;19913;-82
2022/10/23 09:08:04;;;;;;;23.38;10.90;;;;;;;7.81;65.14;99723.91;6051320;23;20019;-82
2022/10/23 09:11:43;;;;;;;20.92;10.73;;;;;;;6.81;64.85;99558.06;6027548;23;20082;-83
2022/10/23 09:14:39;;;;;;;23.13;11.05;;;;;;;7.89;65.71;99720.44;5966097;23;20058;-85
2022/10/23 09:17:54;;;;;;;24.98;11.20;;;;;;;7.60;65.71;99651.34;6014352;23;20024;-84
2022/10/23 09:20:46;;;;;;;22.45;11.15;;;;;;;7.78;64.83;99651.38;5955981;23;20106;-78
2022/10/23 09:27:18;;;;;;;23.92;11.15;;;;;;;6.84;64.76;99508.91;6112036;23;20117;-80
2022/10/23 09:29:59;;;;;;;22.40;11.25;;;;;;;7.69;65.26;99685.03;6102926;23;20021;-83
2022/10/23 09:32:46;;;;;;;23.55;12.07;;;;;;;6.69;64.97;99530.44;6127345;23;20441;-83
2022/10/23 09:35:34;;;;;;;22.52;11.63;;;;;;;6.52;65.12;99520.88;6128596;23;20041;-83
2022/10/23 09:38:04;;;;;;;24.10;10.80;;;;;;;7.61;65.24;99720.41;6135167;23;20017;-81
2022/10/23 09:40:52;;;;;;;27.20;11.38;;;;;;;7.23;65.29;99649.56;6135785;23;20021;-83
2022/10/23 09:44:19;;;;;;;28.08;11.88;;;;;;;7.68;65.90;99696.25;6132891;23;20013;-81
2022/10/23 09:51:29;;;;;;;26.08;12.07;;;;;;;6.91;65.50;99601.16;6011417;23;20020;-80
2022/10/23 09:54:24;;;;;;;27.88;12.35;;;;;;;6.55;65.87;99564.84;6021880;23;20053;-83
2022/10/23 09:58:27;;;;;;;23.92;11.68;;;;;;;6.35;65.98;99541.53;6141311;23;20052;-83
2022/10/23 10:02:04;;;;;;;;;;;;;;;;;;;;;
2022/10/23 10:06:00;;;;;;;27.45;12.30;;;;;;;7.23;66.75;99689.25;5994440;23;20063;-81
2022/10/23 10:09:12;;;;;;;27.95;11.68;;;;;;;5.99;67.45;99517.19;5957211;23;20039;-81
2022/10/23 10:12:56;;;;;;;;;;;;;;;;;;;;;
2022/10/23 10:29:53;;;;;;;;;;;;;;;;;;;;;
2022/10/23 10:37:06;;;;;;;25.25;12.50;;;;;;;6.95;67.78;99654.66;5950402;24;20080;-77
2022/10/23 10:40:29;;;;;;;;;;;;;;;;;;;;;
2022/10/23 10:44:01;;;;;;;28.95;12.48;;;;;;;6.99;67.63;99658.09;5963902;24;20350;-79
2022/10/23 10:46:35;;;;;;;30.73;13.27;;;;;;;6.95;68.45;99646.03;6002331;24;20028;-80
2022/10/23 10:49:13;;;;;;;26.85;12.82;;;;;;;6.74;68.04;99617.50;6126443;23;20401;-79
2022/10/23 10:52:39;;;;;;;29.10;13.18;;;;;;;6.90;67.93;99639.13;6102806;23;20033;-79
2022/10/23 10:55:18;;;;;;;29.85;12.75;;;;;;;6.83;68.91;99632.19;6126950;23;20088;-79
2022/10/23 10:58:00;;;;;;;32.97;13.80;;;;;;;6.53;68.13;99576.91;6102826;23;20448;-81
2022/10/23 11:00:32;;;;;;;28.23;12.45;;;;;;;6.96;68.66;99617.56;6126861;23;20026;-78
2022/10/23 11:03:35;;;;;;;27.23;13.25;;;;;;;7.10;68.77;99617.63;6128475;23;20041;-80
2022/10/23 11:06:52;;;;;;;28.75;12.70;;;;;;;7.16;68.46;99619.34;6131506;23;20049;-80
2022/10/23 11:09:51;;;;;;;23.90;12.30;;;;;;;5.96;68.79;99427.66;6113541;23;20010;-79
2022/10/23 11:12:23;;;;;;;29.93;14.07;;;;;;;6.56;68.88;99511.44;6133689;23;20049;-79
2022/10/23 11:14:50;;;;;;;26.67;13.90;;;;;;;7.21;69.30;99584.00;6131844;23;20017;-79
2022/10/23 11:17:31;;;;;;;33.05;14.35;;;;;;;7.46;68.83;99592.63;6162569;23;20044;-78
2022/10/23 11:20:20;;;;;;;29.48;13.50;;;;;;;7.40;68.85;99569.31;6172550;23;20024;-80
2022/10/23 11:22:51;;;;;;;28.75;12.35;;;;;;;7.46;68.88;99571.94;6173009;23;20013;-78
2022/10/23 11:25:46;;;;;;;29.15;12.55;;;;;;;7.47;69.00;99568.47;6140330;23;20017;-78
2022/10/23 11:28:38;;;;;;;31.80;14.70;;;;;;;7.50;68.49;99576.25;6160616;23;20052;-81
2022/10/23 11:31:16;;;;;;;;;;;;;;;7.62;68.80;99588.34;6155394;23;20510;-78
2022/10/23 11:33:46;;;;;;;30.77;13.93;;;;;;;7.58;68.67;99586.59;6107369;23;19920;-78
2022/10/23 11:36:31;;;;;;;28.70;12.85;;;;;;;7.52;68.50;99579.69;6156985;23;20017;-79
2022/10/23 11:39:14;;;;;;;27.50;13.02;;;;;;;7.40;68.51;99551.19;6155034;23;20049;-79
2022/10/23 11:41:49;;;;;;;28.58;13.10;;;;;;;7.54;68.93;99569.34;6105299;23;20340;-81
2022/10/23 11:44:25;;;;;;;26.90;13.43;;;;;;;7.32;69.02;99543.44;6130369;23;20072;-81
2022/10/23 11:47:25;;;;;;;27.85;13.18;;;;;;;7.43;68.91;99535.69;6157408;23;20061;-82
2022/10/23 11:50:13;;;;;;;30.38;13.38;;;;;;;7.12;68.82;99489.09;6130859;23;20519;-80
2022/10/23 11:52:55;;;;;;;29.65;13.68;;;;;;;7.46;68.84;99546.03;6130404;23;20467;-80
2022/10/23 11:55:26;;;;;;;28.10;13.65;;;;;;;7.60;69.37;99552.94;6156327;23;20447;-77
2022/10/23 11:58:25;;;;;;;26.17;13.60;;;;;;;7.64;69.12;99558.13;6159235;23;20022;-81
2022/10/23 12:00:56;;;;;;;27.73;13.45;;;;;;;7.13;68.80;99448.56;6111253;23;20403;-80
2022/10/23 12:03:36;;;;;;;26.00;13.27;;;;;;;7.03;68.98;99442.53;6087892;23;20021;-80
2022/10/23 12:06:04;;;;;;;26.40;13.25;;;;;;;7.45;68.55;99502.03;6138239;23;20022;-82
2022/10/23 12:11:41;;;;;;;30.90;13.98;;;;;;;7.65;69.18;99535.66;5993995;23;20031;-81
2022/10/23 12:14:39;;;;;;;32.90;13.55;;;;;;;7.59;69.44;99536.53;6011528;23;20047;-82
2022/10/23 12:17:30;;;;;;;29.35;13.32;;;;;;;7.58;68.96;99534.81;5968138;23;20053;-80
2022/10/23 12:20:30;;;;;;;35.13;13.98;;;;;;;7.45;69.54;99515.81;6019994;23;20026;-79
2022/10/23 12:23:14;;;;;;;29.27;13.85;;;;;;;7.58;69.22;99537.41;5971319;23;20016;-79
2022/10/23 12:25:55;;;;;;;28.95;13.98;;;;;;;7.62;69.46;99530.47;5992342;23;20031;-81
2022/10/23 12:28:21;;;;;;;32.67;14.47;;;;;;;7.62;69.28;99530.47;5993796;23;20083;-82
2022/10/23 12:31:02;;;;;;;35.05;15.80;;;;;;;7.70;69.73;99536.53;5993338;23;20026;-81
2022/10/23 12:33:44;;;;;;;30.15;14.18;;;;;;;7.78;69.55;99532.22;5966288;23;20039;-79
2022/10/23 12:36:38;;;;;;;33.13;14.95;;;;;;;7.78;69.44;99539.09;5986050;23;20075;-78
2022/10/23 12:39:25;;;;;;;29.13;14.95;;;;;;;7.59;69.70;99495.09;5986524;23;20031;-80
2022/10/23 12:41:51;;;;;;;34.25;15.02;;;;;;;7.66;69.30;99511.50;6011669;23;20026;-79
2022/10/23 12:44:20;;;;;;;29.90;15.07;;;;;;;7.75;69.74;99521.84;6014239;23;20449;-78
2022/10/23 12:46:56;;;;;;;31.52;15.63;;;;;;;7.58;69.87;99475.25;6016634;23;20023;-82
2022/10/23 12:49:25;;;;;;;28.80;14.02;;;;;;;7.84;69.79;99514.03;5997343;23;20030;-79
2022/10/23 12:52:15;;;;;;;31.92;15.73;;;;;;;7.83;69.35;99514.06;5988592;23;20045;-83
2022/10/23 12:54:49;;;;;;;31.08;14.80;;;;;;;7.51;69.48;99476.13;6011835;23;20052;-82
2022/10/23 12:57:21;;;;;;;30.50;14.20;;;;;;;7.79;69.53;99513.22;5964013;23;20027;-79
2022/10/23 13:00:31;;;;;;;34.97;15.48;;;;;;;7.49;69.40;99473.53;5964447;23;20049;-80
2022/10/23 13:03:00;;;;;;;38.08;17.10;;;;;;;7.75;69.92;99506.31;6013646;23;20026;-81
2022/10/23 13:05:28;;;;;;;34.05;16.88;;;;;;;7.81;70.12;99490.75;5989136;23;20031;-81
2022/10/23 13:07:56;;;;;;;34.67;16.15;;;;;;;7.77;70.09;99478.69;5994901;23;20019;-80
2022/10/23 13:10:34;;;;;;;31.05;15.57;;;;;;;7.99;70.06;99497.59;6037277;23;20027;-82
2022/10/23 13:13:07;;;;;;;38.63;17.85;;;;;;;8.02;70.11;99481.19;6016302;23;20026;-80
2022/10/23 13:15:41;;;;;;;32.80;14.63;;;;;;;8.06;69.58;99490.66;6017382;23;20240;-80
2022/10/23 13:18:13;;;;;;;28.55;14.27;;;;;;;7.53;69.82;99407.94;6021259;23;20472;-80
2022/10/23 13:20:57;;;;;;;36.17;14.95;;;;;;;7.54;69.95;99420.03;6016174;23;20022;-82
2022/10/23 13:23:34;;;;;;;32.95;15.48;;;;;;;7.50;69.84;99407.09;6021450;23;20019;-82
2022/10/23 13:26:22;;;;;;;33.78;16.27;;;;;;;7.97;69.98;99478.59;5993817;23;20038;-83
2022/10/23 13:28:49;;;;;;;34.20;15.95;;;;;;;7.78;70.10;99446.72;6015588;23;20357;-81
2022/10/23 13:31:19;;;;;;;38.25;16.85;;;;;;;8.02;70.04;99475.13;6042266;23;20026;-80
2022/10/23 13:34:03;;;;;;;34.80;18.25;;;;;;;7.80;70.26;99431.16;6019779;23;20023;-82
2022/10/23 13:36:34;;;;;;;37.38;18.02;;;;;;;8.02;70.39;99462.19;6040957;23;20026;-86
2022/10/23 13:39:09;;;;;;;33.70;18.00;;;;;;;8.02;70.77;99444.03;6015984;23;20027;-80
2022/10/23 13:41:38;;;;;;;35.03;16.27;;;;;;;8.13;70.35;99468.19;6016918;23;20098;-81
2022/10/23 13:44:05;;;;;;;35.13;16.95;;;;;;;7.60;70.70;99382.03;6052797;23;20030;-81